createdAt,value
2019-05-13T00:01:53.967Z,95224.71
2019-05-13T00:04:24.196Z,95221.75
2019-05-13T00:06:55.150Z,95223.56
2019-05-13T00:09:24.530Z,95230.27
2019-05-13T00:11:54.085Z,95224.55
2019-05-13T00:14:23.988Z,95220.89
2019-05-13T00:16:53.673Z,95220.52
2019-05-13T00:19:23.315Z,95220.52
2019-05-13T00:21:51.877Z,95216.11
2019-05-13T00:24:20.277Z,95209.05
2019-05-13T00:26:49.006Z,95212.45
2019-05-13T00:29:17.830Z,95213.75
2019-05-13T00:31:46.243Z,95214.16
2019-05-13T00:34:14.664Z,95212.58
2019-05-13T00:36:44.536Z,95216.55
2019-05-13T00:39:15.343Z,95218.05
2019-05-13T00:41:44.273Z,95217.84
2019-05-13T00:44:14.267Z,95213.79
2019-05-13T00:46:44.136Z,95217.69
2019-05-13T00:49:13.440Z,95214.28
2019-05-13T00:51:44.230Z,95209.09
2019-05-13T00:54:13.306Z,95204.26
2019-05-13T00:56:43.588Z,95209.70
2019-05-13T00:59:14.146Z,95208.88
2019-05-13T01:01:44.070Z,95205.28
2019-05-13T01:04:14.387Z,95203.20
2019-05-13T01:06:43.642Z,95203.48
2019-05-13T01:09:14.463Z,95202.97
2019-05-13T01:11:43.775Z,95195.78
2019-05-13T01:14:14.302Z,95191.89
2019-05-13T01:16:44.281Z,95186.70
2019-05-13T01:19:14.404Z,95189.58
2019-05-13T01:21:43.501Z,95184.59
2019-05-13T01:24:14.207Z,95185.60
2019-05-13T01:26:43.847Z,95180.33
2019-05-13T01:29:13.451Z,95178.54
2019-05-13T01:31:43.490Z,95182.84
2019-05-13T01:34:14.063Z,95178.88
2019-05-13T01:36:44.468Z,95179.11
2019-05-13T01:39:13.872Z,95175.70
2019-05-13T01:41:43.853Z,95179.52
2019-05-13T01:44:13.984Z,95180.53
2019-05-13T01:46:43.681Z,95179.23
2019-05-13T01:49:13.646Z,95174.45
2019-05-13T01:51:44.003Z,95179.88
2019-05-13T01:54:14.218Z,95176.19
2019-05-13T01:56:44.099Z,95180.58
2019-05-13T01:59:15.031Z,95174.52
2019-05-13T02:01:44.218Z,95176.75
2019-05-13T02:04:14.223Z,95174.56
2019-05-13T02:06:44.310Z,95176.87
2019-05-13T02:09:14.152Z,95175.00
2019-05-13T02:11:44.532Z,95181.69
2019-05-13T02:14:13.368Z,95179.30
2019-05-13T02:16:44.388Z,95183.48
2019-05-13T02:19:14.148Z,95181.04
2019-05-13T02:21:43.894Z,95178.16
2019-05-13T02:24:14.500Z,95175.89
2019-05-13T02:26:43.679Z,95181.72
2019-05-13T02:29:14.409Z,95178.17
2019-05-13T02:31:51.157Z,95182.09
2019-05-13T02:34:13.752Z,95180.14
2019-05-13T02:36:43.882Z,95180.98
2019-05-13T02:39:13.145Z,95180.00
2019-05-13T02:41:43.239Z,95177.84
2019-05-13T02:44:12.449Z,95174.27
2019-05-13T02:46:44.002Z,95176.19
2019-05-13T02:49:12.227Z,95172.94
2019-05-13T02:51:42.890Z,95169.67
2019-05-13T02:54:12.391Z,95166.91
2019-05-13T02:56:42.226Z,95166.44
2019-05-13T02:59:13.137Z,95164.25
2019-05-13T03:01:43.173Z,95161.66
2019-05-13T03:04:13.148Z,95169.43
2019-05-13T03:06:43.556Z,95169.86
2019-05-13T03:09:12.725Z,95167.38
2019-05-13T03:11:42.332Z,95165.50
2019-05-13T03:14:12.826Z,95166.70
2019-05-13T03:16:52.744Z,95171.80
2019-05-13T03:19:22.538Z,95177.12
2019-05-13T03:21:52.413Z,95176.22
2019-05-13T03:24:22.743Z,95175.93
2019-05-13T03:26:53.288Z,95183.41
2019-05-13T03:29:22.451Z,95181.98
2019-05-13T03:31:55.852Z,95184.37
2019-05-13T03:34:26.619Z,95182.45
2019-05-13T03:36:56.645Z,95183.35
2019-05-13T03:39:23.346Z,95182.44
2019-05-13T03:41:53.728Z,95190.87
2019-05-13T03:44:24.011Z,95188.66
2019-05-13T03:46:54.483Z,95191.64
2019-05-13T03:49:25.948Z,95191.92
2019-05-13T03:51:54.766Z,95196.13
2019-05-13T03:54:23.618Z,95194.12
2019-05-13T03:56:53.188Z,95193.69
2019-05-13T03:59:22.637Z,95198.77
2019-05-13T04:01:52.524Z,95197.94
2019-05-13T04:04:23.410Z,95200.61
2019-05-13T04:06:53.056Z,95207.19
2019-05-13T04:09:30.166Z,95203.59
2019-05-13T04:11:52.737Z,95205.17
2019-05-13T04:14:22.855Z,95204.16
2019-05-13T04:16:54.376Z,95199.59
2019-05-13T04:19:23.466Z,95207.22
2019-05-13T04:21:52.872Z,95209.90
2019-05-13T04:24:23.056Z,95207.59
2019-05-13T04:26:53.379Z,95206.82
2019-05-13T04:29:23.327Z,95202.93
2019-05-13T04:31:53.219Z,95201.34
2019-05-13T04:34:23.030Z,95199.53
2019-05-13T04:36:52.100Z,95202.41
2019-05-13T04:39:40.544Z,95197.95
2019-05-13T04:41:52.853Z,95203.24
2019-05-13T04:44:24.051Z,95198.48
2019-05-13T04:46:52.359Z,95199.61
2019-05-13T04:49:23.213Z,95195.34
2019-05-13T04:51:52.388Z,95203.70
2019-05-13T04:54:22.586Z,95201.83
2019-05-13T04:56:52.476Z,95199.12
2019-05-13T04:59:22.729Z,95207.47
2019-05-13T05:02:17.178Z,95210.16
2019-05-13T05:04:52.419Z,95210.73
2019-05-13T05:07:42.070Z,95211.72
2019-05-13T05:10:51.112Z,95209.13
2019-05-13T05:13:37.120Z,95214.16
2019-05-13T05:16:44.586Z,95215.64
2019-05-13T05:19:44.898Z,95216.81
2019-05-13T05:22:33.207Z,95225.09
2019-05-13T05:25:13.617Z,95227.19
2019-05-13T05:28:11.163Z,95227.16
2019-05-13T05:30:51.944Z,95225.67
2019-05-13T05:33:55.197Z,95228.88
2019-05-13T05:36:41.541Z,95224.95
2019-05-13T05:39:24.089Z,95227.27
2019-05-13T05:41:55.071Z,95229.08
2019-05-13T05:44:26.999Z,95232.12
2019-05-13T05:46:58.449Z,95222.47
2019-05-13T05:49:27.885Z,95222.33
2019-05-13T05:52:02.577Z,95222.88
2019-05-13T05:54:33.818Z,95220.36
2019-05-13T05:57:03.956Z,95220.02
2019-05-13T05:59:32.878Z,95216.39
2019-05-13T06:02:02.279Z,95223.79
2019-05-13T06:04:32.491Z,95224.20
2019-05-13T06:07:03.365Z,95221.84
2019-05-13T06:09:32.343Z,95220.02
2019-05-13T06:12:01.812Z,95218.77
2019-05-13T06:14:32.759Z,95220.77
2019-05-13T06:17:02.703Z,95214.68
2019-05-13T06:19:32.164Z,95215.23
2019-05-13T06:22:02.325Z,95224.04
2019-05-13T06:24:31.601Z,95216.72
2019-05-13T06:27:01.630Z,95217.20
2019-05-13T06:29:31.603Z,95208.03
2019-05-13T06:32:15.143Z,95204.64
2019-05-13T06:34:32.695Z,95205.67
2019-05-13T06:37:01.944Z,95211.56
2019-05-13T06:39:31.653Z,95219.53
2019-05-13T06:42:02.706Z,95219.72
2019-05-13T06:44:31.729Z,95224.95
2019-05-13T06:47:02.455Z,95219.34
2019-05-13T06:49:32.342Z,95217.58
2019-05-13T06:52:01.735Z,95221.14
2019-05-13T06:54:32.866Z,95215.81
2019-05-13T06:57:04.393Z,95220.76
2019-05-13T06:59:31.756Z,95228.58
2019-05-13T07:02:02.242Z,95223.14
2019-05-13T07:04:32.624Z,95223.42
2019-05-13T07:07:09.828Z,95216.73
2019-05-13T07:09:32.285Z,95219.31
2019-05-13T07:12:03.251Z,95218.02
2019-05-13T07:14:32.355Z,95221.20
2019-05-13T07:17:02.181Z,95222.11
2019-05-13T07:19:32.392Z,95223.21
2019-05-13T07:22:02.687Z,95228.30
2019-05-13T07:24:32.414Z,95222.39
2019-05-13T07:27:01.780Z,95224.56
2019-05-13T07:29:32.482Z,95226.00
2019-05-13T07:32:01.702Z,95223.47
2019-05-13T07:34:33.529Z,95226.84
2019-05-13T07:37:02.127Z,95230.45
2019-05-13T07:39:32.683Z,95224.83
2019-05-13T07:42:05.321Z,95221.04
2019-05-13T07:44:32.614Z,95220.91
2019-05-13T07:47:03.458Z,95227.06
2019-05-13T07:49:31.877Z,95223.52
2019-05-13T07:52:01.615Z,95216.14
2019-05-13T07:54:32.900Z,95223.05
2019-05-13T07:57:01.894Z,95226.68
2019-05-13T07:59:31.864Z,95227.53
2019-05-13T08:02:02.190Z,95221.80
2019-05-13T08:04:33.439Z,95223.36
2019-05-13T08:07:02.089Z,95219.83
2019-05-13T08:09:31.850Z,95221.92
2019-05-13T08:12:09.883Z,95222.51
2019-05-13T08:14:32.929Z,95233.02
2019-05-13T08:17:02.591Z,95224.86
2019-05-13T08:19:32.660Z,95236.13
2019-05-13T08:22:02.253Z,95227.25
2019-05-13T08:24:31.637Z,95231.90
2019-05-13T08:27:02.217Z,95231.63
2019-05-13T08:29:32.687Z,95232.57
2019-05-13T08:32:02.733Z,95222.75
2019-05-13T08:34:32.888Z,95221.45
2019-05-13T08:37:02.981Z,95212.67
2019-05-13T08:39:35.777Z,95216.10
2019-05-13T08:42:12.758Z,95213.65
2019-05-13T08:44:32.226Z,95216.78
2019-05-13T08:47:03.018Z,95210.66
2019-05-13T08:49:32.543Z,95221.04
2019-05-13T08:52:01.795Z,95213.98
2019-05-13T08:54:32.800Z,95219.27
2019-05-13T08:57:02.975Z,95222.83
2019-05-13T08:59:32.159Z,95208.66
2019-05-13T09:02:03.063Z,95221.77
2019-05-13T09:04:31.594Z,95220.47
2019-05-13T09:07:02.115Z,95213.19
2019-05-13T09:09:31.726Z,95208.89
2019-05-13T09:12:02.503Z,95203.64
2019-05-13T09:14:32.455Z,95212.59
2019-05-13T09:17:01.878Z,95209.77
2019-05-13T09:19:32.190Z,95209.30
2019-05-13T09:22:02.869Z,95207.32
2019-05-13T09:24:37.133Z,95203.25
2019-05-13T09:27:02.130Z,95201.54
2019-05-13T09:29:32.190Z,95204.81
2019-05-13T09:32:03.905Z,95200.86
2019-05-13T09:34:32.859Z,95204.23
2019-05-13T09:37:02.839Z,95198.52
2019-05-13T09:39:32.456Z,95193.91
2019-05-13T09:42:02.663Z,95194.55
2019-05-13T09:44:32.697Z,95200.27
2019-05-13T09:47:02.597Z,95195.37
2019-05-13T09:49:33.372Z,95199.72
2019-05-13T09:52:01.957Z,95204.47
2019-05-13T09:54:32.885Z,95194.88
2019-05-13T09:57:01.799Z,95200.72
2019-05-13T09:59:31.801Z,95193.55
2019-05-13T10:02:03.146Z,95191.75
2019-05-13T10:04:31.798Z,95201.49
2019-05-13T10:07:02.259Z,95199.72
2019-05-13T10:09:32.585Z,95205.13
2019-05-13T10:12:03.277Z,95203.06
2019-05-13T10:14:32.716Z,95206.37
2019-05-13T10:17:06.203Z,95210.80
2019-05-13T10:19:32.554Z,95207.94
2019-05-13T10:22:01.499Z,95210.36
2019-05-13T10:24:32.469Z,95212.88
2019-05-13T10:27:02.330Z,95213.08
2019-05-13T10:29:32.251Z,95213.44
2019-05-13T10:32:02.671Z,95223.52
2019-05-13T10:34:32.146Z,95217.38
2019-05-13T10:37:02.231Z,95213.31
2019-05-13T10:39:31.108Z,95219.19
2019-05-13T10:41:59.483Z,95213.28
2019-05-13T10:44:27.877Z,95217.98
2019-05-13T10:46:56.261Z,95214.08
2019-05-13T10:49:24.653Z,95215.33
2019-05-13T10:51:53.047Z,95209.55
2019-05-13T10:54:21.843Z,95218.67
2019-05-13T10:56:52.728Z,95229.37
2019-05-13T10:59:22.902Z,95237.76
2019-05-13T11:01:51.172Z,95233.14
2019-05-13T11:04:22.038Z,95228.70
2019-05-13T11:06:52.194Z,95214.92
2019-05-13T11:09:21.839Z,95204.25
2019-05-13T11:11:52.827Z,95203.02
2019-05-13T11:14:22.017Z,95204.05
2019-05-13T11:16:52.374Z,95204.69
2019-05-13T11:19:23.202Z,95201.97
2019-05-13T11:21:51.464Z,95207.78
2019-05-13T11:24:22.110Z,95203.75
2019-05-13T11:26:52.243Z,95199.55
2019-05-13T11:29:22.882Z,95205.75
2019-05-13T11:31:52.429Z,95203.63
2019-05-13T11:34:22.064Z,95208.94
2019-05-13T11:36:53.262Z,95211.28
2019-05-13T11:39:21.912Z,95206.37
2019-05-13T11:41:50.659Z,95205.78
2019-05-13T11:44:19.039Z,95205.50
2019-05-13T11:46:47.434Z,95204.99
2019-05-13T11:49:15.821Z,95211.00
2019-05-13T11:51:44.780Z,95216.43
2019-05-13T11:54:13.926Z,95220.02
2019-05-13T11:56:49.175Z,95219.63
2019-05-13T11:59:14.065Z,95227.67
2019-05-13T12:01:43.099Z,95230.64
2019-05-13T12:04:11.785Z,95241.91
2019-05-13T12:06:47.976Z,95242.55
2019-05-13T12:09:13.094Z,95240.06
2019-05-13T12:11:41.165Z,95246.25
2019-05-13T12:14:34.709Z,95251.48
2019-05-13T12:16:42.292Z,95246.29
2019-05-13T12:19:11.852Z,95241.64
2019-05-13T12:21:44.491Z,95236.77
2019-05-13T12:24:11.557Z,95232.08
2019-05-13T12:26:43.098Z,95231.88
2019-05-13T12:29:17.906Z,95222.94
2019-05-13T12:31:40.711Z,95227.84
2019-05-13T12:34:12.767Z,95222.37
2019-05-13T12:36:42.937Z,95225.40
2019-05-13T12:39:13.977Z,95228.42
2019-05-13T12:41:42.778Z,95221.80
2019-05-13T12:44:12.714Z,95228.04
2019-05-13T12:46:41.507Z,95232.30
2019-05-13T12:49:14.360Z,95234.89
2019-05-13T12:51:43.867Z,95228.06
2019-05-13T12:54:13.693Z,95224.87
2019-05-13T12:56:42.536Z,95234.17
2019-05-13T12:59:13.129Z,95228.23
2019-05-13T13:01:41.515Z,95224.19
2019-05-13T13:04:12.205Z,95226.72
2019-05-13T13:06:45.096Z,95227.84
2019-05-13T13:09:12.660Z,95228.38
2019-05-13T13:11:43.475Z,95228.75
2019-05-13T13:14:15.089Z,95225.94
2019-05-13T13:16:42.450Z,95224.70
2019-05-13T13:19:14.520Z,95226.28
2019-05-13T13:21:42.129Z,95229.17
2019-05-13T13:24:12.414Z,95224.11
2019-05-13T13:26:42.861Z,95220.59
2019-05-13T13:29:11.363Z,95222.47
2019-05-13T13:31:43.268Z,95221.49
2019-05-13T13:34:16.449Z,95216.05
2019-05-13T13:36:45.234Z,95213.06
2019-05-13T13:39:14.970Z,95213.52
2019-05-13T13:41:43.661Z,95216.89
2019-05-13T13:44:12.250Z,95216.54
2019-05-13T13:46:44.524Z,95215.20
2019-05-13T13:49:12.919Z,95208.94
2019-05-13T13:51:44.500Z,95200.69
2019-05-13T13:54:11.742Z,95193.53
2019-05-13T13:56:43.900Z,95182.01
2019-05-13T13:59:13.927Z,95187.53
2019-05-13T14:01:40.683Z,95186.52
2019-05-13T14:04:09.106Z,95189.75
2019-05-13T14:09:07.742Z,95193.47
2019-05-13T14:11:36.460Z,95206.08
2019-05-13T14:14:04.931Z,95203.50
2019-05-13T14:16:35.313Z,95204.28
2019-05-13T14:19:03.944Z,95197.09
2019-05-13T14:21:32.626Z,95197.70
2019-05-13T14:24:02.675Z,95187.55
2019-05-13T14:26:33.014Z,95183.13
2019-05-13T14:29:02.617Z,95179.94
2019-05-13T14:31:32.325Z,95180.53
2019-05-13T14:34:03.653Z,95167.92
2019-05-13T14:36:31.513Z,95168.71
2019-05-13T14:39:02.629Z,95175.03
2019-05-13T14:41:31.287Z,95169.23
2019-05-13T14:43:59.780Z,95162.63
2019-05-13T14:46:45.746Z,95156.25
2019-05-13T14:48:58.295Z,95159.92
2019-05-13T14:51:26.686Z,95159.21
2019-05-13T14:53:55.090Z,95160.03
2019-05-13T14:56:23.481Z,95165.53
2019-05-13T14:58:52.317Z,95167.07
2019-05-13T15:01:22.737Z,95173.82
2019-05-13T15:03:51.989Z,95173.19
2019-05-13T15:06:22.029Z,95173.17
2019-05-13T15:08:52.718Z,95173.89
2019-05-13T15:11:21.954Z,95167.33
2019-05-13T15:13:51.859Z,95162.63
2019-05-13T15:16:22.372Z,95170.27
2019-05-13T15:18:52.479Z,95169.05
2019-05-13T15:21:21.393Z,95167.91
2019-05-13T15:23:51.739Z,95162.39
2019-05-13T15:26:22.059Z,95156.09
2019-05-13T15:28:51.910Z,95155.05
2019-05-13T15:31:22.043Z,95154.77
2019-05-13T15:33:52.440Z,95157.65
2019-05-13T15:36:22.533Z,95145.55
2019-05-13T15:38:51.979Z,95146.83
2019-05-13T15:41:20.598Z,95142.09
2019-05-13T15:43:51.259Z,95138.06
2019-05-13T15:46:21.810Z,95130.87
2019-05-13T15:48:51.471Z,95131.59
2019-05-13T15:51:21.992Z,95133.09
2019-05-13T15:53:51.717Z,95126.33
2019-05-13T15:56:22.439Z,95126.30
2019-05-13T15:58:52.602Z,95129.59
2019-05-13T16:01:23.007Z,95127.64
2019-05-13T16:03:52.400Z,95126.09
2019-05-13T16:06:20.703Z,95126.97
2019-05-13T16:08:51.622Z,95128.66
2019-05-13T16:11:21.720Z,95125.28
2019-05-13T16:13:51.751Z,95126.17
2019-05-13T16:16:21.892Z,95128.46
2019-05-13T16:18:51.382Z,95132.84
2019-05-13T16:21:20.403Z,95127.52
2019-05-13T16:23:48.783Z,95128.48
2019-05-13T16:26:17.179Z,95128.34
2019-05-13T16:28:45.566Z,95125.28
2019-05-13T16:31:13.964Z,95120.45
2019-05-13T16:33:42.351Z,95124.20
2019-05-13T16:36:12.749Z,95123.89
2019-05-13T16:38:41.702Z,95124.90
2019-05-13T16:41:12.442Z,95130.77
2019-05-13T16:43:42.615Z,95131.63
2019-05-13T16:46:12.167Z,95132.42
2019-05-13T16:48:41.587Z,95132.65
2019-05-13T16:51:12.578Z,95137.10
2019-05-13T16:53:42.097Z,95140.80
2019-05-13T16:56:25.291Z,95139.19
2019-05-13T16:58:41.859Z,95138.05
2019-05-13T17:01:11.887Z,95135.95
2019-05-13T17:03:41.406Z,95135.91
2019-05-13T17:06:12.469Z,95140.51
2019-05-13T17:08:42.229Z,95139.37
2019-05-13T17:11:11.853Z,95143.80
2019-05-13T17:13:42.223Z,95140.03
2019-05-13T17:16:11.161Z,95147.58
2019-05-13T17:18:41.661Z,95142.23
2019-05-13T17:21:09.660Z,95142.05
2019-05-13T17:23:38.043Z,95138.89
2019-05-13T17:26:06.444Z,95142.64
2019-05-13T17:28:35.100Z,95131.63
2019-05-13T17:31:03.679Z,95132.65
2019-05-13T17:33:32.144Z,95133.70
2019-05-13T17:36:01.881Z,95147.12
2019-05-13T17:38:32.445Z,95146.09
2019-05-13T17:41:02.226Z,95155.83
2019-05-13T17:43:31.964Z,95154.67
2019-05-13T17:46:01.022Z,95154.55
2019-05-13T17:48:32.797Z,95153.89
2019-05-13T17:51:01.340Z,95162.72
2019-05-13T17:53:32.254Z,95161.81
2019-05-13T17:56:02.268Z,95161.48
2019-05-13T17:58:31.436Z,95158.45
2019-05-13T18:01:01.703Z,95168.05
2019-05-13T18:03:32.149Z,95163.58
2019-05-13T18:06:02.350Z,95162.91
2019-05-13T18:08:32.076Z,95163.42
2019-05-13T18:11:02.262Z,95160.48
2019-05-13T18:13:31.525Z,95157.48
2019-05-13T18:16:02.567Z,95159.25
2019-05-13T18:18:40.398Z,95160.42
2019-05-13T18:21:01.484Z,95160.78
2019-05-13T18:23:30.466Z,95159.80
2019-05-13T18:25:58.855Z,95154.73
2019-05-13T18:28:31.271Z,95155.37
2019-05-13T18:30:57.643Z,95155.47
2019-05-13T18:33:26.342Z,95155.86
2019-05-13T18:35:54.726Z,95155.68
2019-05-13T18:38:23.131Z,95151.60
2019-05-13T18:40:52.605Z,95164.44
2019-05-13T18:43:21.650Z,95169.73
2019-05-13T18:45:51.847Z,95166.00
2019-05-13T18:48:21.834Z,95169.22
2019-05-13T18:50:52.339Z,95166.55
2019-05-13T18:53:21.617Z,95166.98
2019-05-13T18:55:52.452Z,95168.73
2019-05-13T18:58:22.251Z,95164.89
2019-05-13T19:00:52.282Z,95169.46
2019-05-13T19:03:21.731Z,95165.56
2019-05-13T19:05:50.391Z,95162.98
2019-05-13T19:08:21.274Z,95167.44
2019-05-13T19:10:49.229Z,95166.20
2019-05-13T19:13:17.931Z,95165.70
2019-05-13T19:15:46.327Z,95168.09
2019-05-13T19:18:14.726Z,95168.05
2019-05-13T19:20:43.114Z,95163.10
2019-05-13T19:23:11.933Z,95166.52
2019-05-13T19:25:42.644Z,95164.45
2019-05-13T19:28:11.851Z,95168.35
2019-05-13T19:30:41.174Z,95168.45
2019-05-13T19:33:12.148Z,95169.89
2019-05-13T19:35:42.536Z,95167.30
2019-05-13T19:38:12.135Z,95170.41
2019-05-13T19:40:41.935Z,95166.38
2019-05-13T19:43:11.599Z,95160.83
2019-05-13T19:45:41.638Z,95160.68
2019-05-13T19:48:11.856Z,95160.32
2019-05-13T19:50:41.588Z,95161.39
2019-05-13T19:53:12.150Z,95166.67
2019-05-13T19:55:41.446Z,95169.69
2019-05-13T19:58:12.210Z,95172.65
2019-05-13T20:00:42.499Z,95170.83
2019-05-13T20:03:11.897Z,95172.91
2019-05-13T20:05:41.514Z,95172.66
2019-05-13T20:08:10.605Z,95170.72
2019-05-13T20:10:39.082Z,95169.98
2019-05-13T20:13:07.476Z,95168.28
2019-05-13T20:15:35.882Z,95168.28
2019-05-13T20:18:04.560Z,95172.17
2019-05-13T20:20:32.967Z,95169.58
2019-05-13T20:23:01.723Z,95164.16
2019-05-13T20:25:31.184Z,95170.92
2019-05-13T20:28:02.396Z,95171.65
2019-05-13T20:30:30.632Z,95176.68
2019-05-13T20:32:59.087Z,95175.91
2019-05-13T20:35:27.502Z,95169.25
2019-05-13T20:37:56.222Z,95170.30
2019-05-13T20:40:24.693Z,95171.88
2019-05-13T20:42:53.076Z,95156.88
2019-05-13T20:45:22.495Z,95161.25
2019-05-13T20:47:50.933Z,95166.64
2019-05-13T20:50:21.813Z,95160.59
2019-05-13T20:52:51.613Z,95164.31
2019-05-13T20:55:21.961Z,95147.17
2019-05-13T20:57:53.087Z,95148.22
2019-05-13T21:00:21.212Z,95151.65
2019-05-13T21:02:51.698Z,95151.80
2019-05-13T21:05:21.820Z,95146.93
2019-05-13T21:07:51.558Z,95141.08
2019-05-13T21:10:21.160Z,95141.28
2019-05-13T21:12:51.441Z,95143.59
2019-05-13T21:15:20.223Z,95136.39
2019-05-13T21:17:48.615Z,95139.50
2019-05-13T21:20:22.226Z,95134.31
2019-05-13T21:22:47.737Z,95127.83
2019-05-13T21:25:16.628Z,95127.45
2019-05-13T21:27:45.348Z,95126.16
2019-05-13T21:30:14.076Z,95122.94
2019-05-13T21:32:42.544Z,95114.44
2019-05-13T21:35:11.956Z,95122.02
2019-05-13T21:37:40.441Z,95113.23
2019-05-13T21:40:11.155Z,95120.17
2019-05-13T21:42:41.894Z,95107.87
2019-05-13T21:45:11.227Z,95108.52
2019-05-13T21:47:39.807Z,95100.94
2019-05-13T21:50:08.536Z,95110.23
2019-05-13T21:52:37.237Z,95101.00
2019-05-13T21:55:07.818Z,95106.95
2019-05-13T21:57:36.310Z,95104.59
2019-05-13T22:00:10.757Z,95105.43
2019-05-13T22:02:40.684Z,95101.28
2019-05-13T22:05:11.504Z,95095.00
2019-05-13T22:07:41.919Z,95094.36
2019-05-13T22:10:09.870Z,95083.05
2019-05-13T22:12:38.275Z,95084.45
2019-05-13T22:15:07.100Z,95087.84
2019-05-13T22:17:35.502Z,95103.92
2019-05-13T22:20:07.870Z,95104.97
2019-05-13T22:22:36.283Z,95101.95
2019-05-13T22:25:07.012Z,95092.95
2019-05-13T22:27:35.405Z,95087.52
2019-05-13T22:30:05.880Z,95090.11
2019-05-13T22:32:34.282Z,95090.40
2019-05-13T22:35:02.676Z,95096.77
2019-05-13T22:37:31.364Z,95088.15
2019-05-13T22:40:01.575Z,95090.54
2019-05-13T22:42:32.180Z,95091.46
2019-05-13T22:45:02.594Z,95084.29
2019-05-13T22:47:31.521Z,95087.80
2019-05-13T22:50:02.038Z,95085.20
2019-05-13T22:52:31.260Z,95084.61
2019-05-13T22:55:02.281Z,95080.20
2019-05-13T22:57:31.330Z,95087.48
2019-05-13T22:59:59.866Z,95086.68
2019-05-13T23:02:28.407Z,95089.07
2019-05-13T23:04:57.211Z,95085.81
2019-05-13T23:07:25.615Z,95082.12
2019-05-13T23:09:54.010Z,95080.66
2019-05-13T23:12:22.776Z,95071.79
2019-05-13T23:14:52.066Z,95068.42
2019-05-13T23:17:21.604Z,95070.64
2019-05-13T23:19:52.154Z,95068.45
2019-05-13T23:22:20.479Z,95061.11
2019-05-13T23:24:49.166Z,95066.97
2019-05-13T23:27:17.571Z,95060.03
2019-05-13T23:29:45.949Z,95056.86
2019-05-13T23:32:14.360Z,95057.53
2019-05-13T23:34:42.742Z,95055.88
2019-05-13T23:37:11.609Z,95051.54
2019-05-13T23:39:41.630Z,95040.23
2019-05-13T23:42:12.168Z,95042.53
2019-05-13T23:44:41.505Z,95046.37
2019-05-13T23:47:11.418Z,95041.32
2019-05-13T23:49:42.222Z,95044.64
2019-05-13T23:52:11.708Z,95038.96
2019-05-13T23:54:42.511Z,95026.49
2019-05-13T23:57:11.822Z,95019.93
2019-05-13T23:59:42.020Z,95017.34
